sensor_id;sensor_type;location;lat;lon;timestamp;P1;durP1;ratioP1;P2;durP2;ratioP2
43345;SDS011;28937;51.160;4.146;2022-12-18T00:01:52;70.38;;;35.00;;
43345;SDS011;28937;51.160;4.146;2022-12-18T00:04:20;61.25;;;33.78;;
43345;SDS011;28937;51.160;4.146;2022-12-18T00:06:47;59.85;;;31.85;;
43345;SDS011;28937;51.160;4.146;2022-12-18T00:09:13;58.35;;;32.13;;
43345;SDS011;28937;51.160;4.146;2022-12-18T00:11:39;54.30;;;30.50;;
43345;SDS011;28937;51.160;4.146;2022-12-18T00:14:05;52.88;;;30.42;;
43345;SDS011;28937;51.160;4.146;2022-12-18T00:16:30;47.70;;;28.15;;
43345;SDS011;28937;51.160;4.146;2022-12-18T00:18:58;45.22;;;27.65;;
43345;SDS011;28937;51.160;4.146;2022-12-18T00:21:25;45.20;;;29.17;;
43345;SDS011;28937;51.160;4.146;2022-12-18T00:23:51;50.58;;;28.77;;
43345;SDS011;28937;51.160;4.146;2022-12-18T00:26:19;44.47;;;27.48;;
43345;SDS011;28937;51.160;4.146;2022-12-18T00:28:46;43.00;;;26.63;;
43345;SDS011;28937;51.160;4.146;2022-12-18T00:31:14;47.47;;;27.92;;
43345;SDS011;28937;51.160;4.146;2022-12-18T00:33:41;47.75;;;28.92;;
43345;SDS011;28937;51.160;4.146;2022-12-18T00:36:07;49.00;;;29.02;;
43345;SDS011;28937;51.160;4.146;2022-12-18T00:38:36;45.42;;;27.38;;
43345;SDS011;28937;51.160;4.146;2022-12-18T00:41:02;43.95;;;27.70;;
43345;SDS011;28937;51.160;4.146;2022-12-18T00:43:28;46.63;;;28.80;;
43345;SDS011;28937;51.160;4.146;2022-12-18T00:45:54;48.58;;;29.05;;
43345;SDS011;28937;51.160;4.146;2022-12-18T00:48:20;49.25;;;29.77;;
43345;SDS011;28937;51.160;4.146;2022-12-18T00:50:47;46.63;;;29.02;;
43345;SDS011;28937;51.160;4.146;2022-12-18T00:53:13;43.20;;;27.33;;
43345;SDS011;28937;51.160;4.146;2022-12-18T00:55:39;48.63;;;28.83;;
43345;SDS011;28937;51.160;4.146;2022-12-18T00:58:06;45.33;;;27.15;;
43345;SDS011;28937;51.160;4.146;2022-12-18T01:00:32;44.63;;;28.25;;
43345;SDS011;28937;51.160;4.146;2022-12-18T01:02:58;45.45;;;27.80;;
43345;SDS011;28937;51.160;4.146;2022-12-18T01:05:23;46.08;;;28.92;;
43345;SDS011;28937;51.160;4.146;2022-12-18T01:07:49;46.13;;;27.95;;
43345;SDS011;28937;51.160;4.146;2022-12-18T01:10:15;44.60;;;28.95;;
43345;SDS011;28937;51.160;4.146;2022-12-18T01:12:40;48.08;;;29.33;;
43345;SDS011;28937;51.160;4.146;2022-12-18T01:15:06;54.00;;;31.50;;
43345;SDS011;28937;51.160;4.146;2022-12-18T01:17:33;46.78;;;28.80;;
43345;SDS011;28937;51.160;4.146;2022-12-18T01:19:58;51.80;;;31.70;;
43345;SDS011;28937;51.160;4.146;2022-12-18T01:22:24;50.95;;;31.00;;
43345;SDS011;28937;51.160;4.146;2022-12-18T01:24:49;52.05;;;30.88;;
43345;SDS011;28937;51.160;4.146;2022-12-18T01:27:15;51.42;;;30.52;;
43345;SDS011;28937;51.160;4.146;2022-12-18T01:29:40;52.22;;;32.35;;
43345;SDS011;28937;51.160;4.146;2022-12-18T01:32:06;52.88;;;31.58;;
43345;SDS011;28937;51.160;4.146;2022-12-18T01:34:32;52.78;;;31.23;;
43345;SDS011;28937;51.160;4.146;2022-12-18T01:36:57;51.28;;;30.90;;
43345;SDS011;28937;51.160;4.146;2022-12-18T01:39:23;48.88;;;30.50;;
43345;SDS011;28937;51.160;4.146;2022-12-18T01:41:48;54.95;;;30.27;;
43345;SDS011;28937;51.160;4.146;2022-12-18T01:44:50;52.95;;;30.70;;
43345;SDS011;28937;51.160;4.146;2022-12-18T01:50:09;47.28;;;29.17;;
43345;SDS011;28937;51.160;4.146;2022-12-18T01:52:41;43.00;;;28.92;;
43345;SDS011;28937;51.160;4.146;2022-12-18T01:55:11;49.40;;;30.45;;
43345;SDS011;28937;51.160;4.146;2022-12-18T01:57:39;42.45;;;27.73;;
43345;SDS011;28937;51.160;4.146;2022-12-18T02:00:07;44.13;;;27.95;;
43345;SDS011;28937;51.160;4.146;2022-12-18T02:02:38;46.45;;;28.85;;
43345;SDS011;28937;51.160;4.146;2022-12-18T02:05:05;49.38;;;30.70;;
43345;SDS011;28937;51.160;4.146;2022-12-18T02:07:35;47.55;;;29.13;;
43345;SDS011;28937;51.160;4.146;2022-12-18T02:12:59;49.95;;;30.52;;
43345;SDS011;28937;51.160;4.146;2022-12-18T02:15:39;50.58;;;29.90;;
43345;SDS011;28937;51.160;4.146;2022-12-18T02:18:20;49.63;;;30.08;;
43345;SDS011;28937;51.160;4.146;2022-12-18T02:20:49;48.20;;;29.83;;
43345;SDS011;28937;51.160;4.146;2022-12-18T02:28:51;58.50;;;31.05;;
43345;SDS011;28937;51.160;4.146;2022-12-18T02:31:21;52.42;;;32.35;;
43345;SDS011;28937;51.160;4.146;2022-12-18T02:33:50;52.50;;;30.38;;
43345;SDS011;28937;51.160;4.146;2022-12-18T02:36:19;53.10;;;31.02;;
43345;SDS011;28937;51.160;4.146;2022-12-18T02:38:46;47.97;;;29.95;;
43345;SDS011;28937;51.160;4.146;2022-12-18T02:41:13;53.38;;;31.30;;
43345;SDS011;28937;51.160;4.146;2022-12-18T02:43:41;49.63;;;31.17;;
43345;SDS011;28937;51.160;4.146;2022-12-18T02:46:24;53.67;;;31.63;;
43345;SDS011;28937;51.160;4.146;2022-12-18T02:51:55;53.40;;;31.55;;
43345;SDS011;28937;51.160;4.146;2022-12-18T02:57:46;51.03;;;31.10;;
43345;SDS011;28937;51.160;4.146;2022-12-18T03:00:37;53.60;;;30.35;;
43345;SDS011;28937;51.160;4.146;2022-12-18T03:03:16;49.92;;;31.40;;
43345;SDS011;28937;51.160;4.146;2022-12-18T03:05:50;48.45;;;29.08;;
43345;SDS011;28937;51.160;4.146;2022-12-18T03:08:32;51.40;;;30.17;;
43345;SDS011;28937;51.160;4.146;2022-12-18T03:11:08;51.33;;;32.05;;
43345;SDS011;28937;51.160;4.146;2022-12-18T03:13:43;49.38;;;30.33;;
43345;SDS011;28937;51.160;4.146;2022-12-18T03:16:14;46.35;;;29.95;;
43345;SDS011;28937;51.160;4.146;2022-12-18T03:18:47;45.00;;;27.20;;
43345;SDS011;28937;51.160;4.146;2022-12-18T03:21:17;45.40;;;27.33;;
43345;SDS011;28937;51.160;4.146;2022-12-18T03:23:48;50.35;;;28.80;;
43345;SDS011;28937;51.160;4.146;2022-12-18T03:26:19;44.55;;;27.95;;
43345;SDS011;28937;51.160;4.146;2022-12-18T03:31:16;41.95;;;24.98;;
43345;SDS011;28937;51.160;4.146;2022-12-18T03:33:51;45.28;;;26.88;;
43345;SDS011;28937;51.160;4.146;2022-12-18T03:36:19;41.90;;;25.80;;
43345;SDS011;28937;51.160;4.146;2022-12-18T03:38:44;41.38;;;25.20;;
43345;SDS011;28937;51.160;4.146;2022-12-18T03:41:18;38.15;;;24.27;;
43345;SDS011;28937;51.160;4.146;2022-12-18T03:46:57;40.45;;;25.67;;
43345;SDS011;28937;51.160;4.146;2022-12-18T03:49:40;40.45;;;24.83;;
43345;SDS011;28937;51.160;4.146;2022-12-18T03:55:09;40.15;;;25.27;;
43345;SDS011;28937;51.160;4.146;2022-12-18T03:57:36;41.53;;;25.65;;
43345;SDS011;28937;51.160;4.146;2022-12-18T04:00:08;37.28;;;24.20;;
43345;SDS011;28937;51.160;4.146;2022-12-18T04:02:37;40.53;;;26.13;;
43345;SDS011;28937;51.160;4.146;2022-12-18T04:05:05;42.53;;;25.02;;
43345;SDS011;28937;51.160;4.146;2022-12-18T04:07:32;39.33;;;23.40;;
43345;SDS011;28937;51.160;4.146;2022-12-18T04:09:58;37.47;;;23.30;;
43345;SDS011;28937;51.160;4.146;2022-12-18T04:12:26;38.53;;;23.95;;
43345;SDS011;28937;51.160;4.146;2022-12-18T04:14:54;37.78;;;24.17;;
43345;SDS011;28937;51.160;4.146;2022-12-18T04:17:20;37.30;;;22.15;;
43345;SDS011;28937;51.160;4.146;2022-12-18T04:19:46;34.33;;;23.02;;
43345;SDS011;28937;51.160;4.146;2022-12-18T04:22:11;35.33;;;22.30;;
43345;SDS011;28937;51.160;4.146;2022-12-18T04:24:37;35.42;;;22.33;;
43345;SDS011;28937;51.160;4.146;2022-12-18T04:27:03;31.75;;;21.30;;
43345;SDS011;28937;51.160;4.146;2022-12-18T04:29:29;32.15;;;21.45;;
43345;SDS011;28937;51.160;4.146;2022-12-18T04:31:54;32.45;;;21.13;;
43345;SDS011;28937;51.160;4.146;2022-12-18T04:34:20;33.22;;;21.33;;
43345;SDS011;28937;51.160;4.146;2022-12-18T04:36:46;31.65;;;21.30;;
43345;SDS011;28937;51.160;4.146;2022-12-18T04:39:11;33.90;;;21.33;;
43345;SDS011;28937;51.160;4.146;2022-12-18T04:41:37;35.08;;;21.67;;
43345;SDS011;28937;51.160;4.146;2022-12-18T04:44:03;34.72;;;21.27;;
43345;SDS011;28937;51.160;4.146;2022-12-18T04:46:28;38.17;;;22.33;;
43345;SDS011;28937;51.160;4.146;2022-12-18T04:48:54;33.65;;;23.02;;
43345;SDS011;28937;51.160;4.146;2022-12-18T04:51:20;34.30;;;22.75;;
43345;SDS011;28937;51.160;4.146;2022-12-18T04:53:46;36.42;;;22.55;;
43345;SDS011;28937;51.160;4.146;2022-12-18T04:56:12;35.90;;;21.90;;
43345;SDS011;28937;51.160;4.146;2022-12-18T04:58:40;34.42;;;21.23;;
43345;SDS011;28937;51.160;4.146;2022-12-18T05:01:07;36.78;;;22.20;;
43345;SDS011;28937;51.160;4.146;2022-12-18T05:03:34;33.33;;;21.23;;
43345;SDS011;28937;51.160;4.146;2022-12-18T05:06:00;33.55;;;19.27;;
43345;SDS011;28937;51.160;4.146;2022-12-18T05:08:25;31.98;;;20.83;;
43345;SDS011;28937;51.160;4.146;2022-12-18T05:11:02;31.55;;;19.25;;
43345;SDS011;28937;51.160;4.146;2022-12-18T05:13:33;34.67;;;19.80;;
43345;SDS011;28937;51.160;4.146;2022-12-18T05:15:59;33.65;;;20.38;;
43345;SDS011;28937;51.160;4.146;2022-12-18T05:18:26;31.42;;;19.42;;
43345;SDS011;28937;51.160;4.146;2022-12-18T05:20:52;28.60;;;18.60;;
43345;SDS011;28937;51.160;4.146;2022-12-18T05:23:18;30.05;;;19.15;;
43345;SDS011;28937;51.160;4.146;2022-12-18T05:25:55;33.42;;;18.95;;
43345;SDS011;28937;51.160;4.146;2022-12-18T05:28:24;24.38;;;17.10;;
43345;SDS011;28937;51.160;4.146;2022-12-18T05:30:51;27.77;;;17.65;;
43345;SDS011;28937;51.160;4.146;2022-12-18T05:33:18;27.40;;;16.88;;
43345;SDS011;28937;51.160;4.146;2022-12-18T05:35:44;27.35;;;18.10;;
43345;SDS011;28937;51.160;4.146;2022-12-18T05:38:14;29.25;;;17.63;;
43345;SDS011;28937;51.160;4.146;2022-12-18T05:40:41;26.75;;;17.17;;
43345;SDS011;28937;51.160;4.146;2022-12-18T05:43:07;26.52;;;16.80;;
43345;SDS011;28937;51.160;4.146;2022-12-18T05:45:36;23.67;;;15.00;;
43345;SDS011;28937;51.160;4.146;2022-12-18T05:48:02;20.70;;;14.48;;
43345;SDS011;28937;51.160;4.146;2022-12-18T05:50:28;24.25;;;14.80;;
43345;SDS011;28937;51.160;4.146;2022-12-18T05:52:54;27.95;;;16.23;;
43345;SDS011;28937;51.160;4.146;2022-12-18T05:55:19;24.52;;;14.77;;
43345;SDS011;28937;51.160;4.146;2022-12-18T05:57:44;26.33;;;15.88;;
43345;SDS011;28937;51.160;4.146;2022-12-18T06:00:10;25.77;;;16.33;;
43345;SDS011;28937;51.160;4.146;2022-12-18T06:02:36;26.58;;;16.80;;
43345;SDS011;28937;51.160;4.146;2022-12-18T06:05:02;25.60;;;16.50;;
43345;SDS011;28937;51.160;4.146;2022-12-18T06:07:27;27.63;;;17.67;;
43345;SDS011;28937;51.160;4.146;2022-12-18T06:09:53;25.48;;;17.35;;
43345;SDS011;28937;51.160;4.146;2022-12-18T06:12:18;26.58;;;17.52;;
43345;SDS011;28937;51.160;4.146;2022-12-18T06:14:44;27.67;;;17.98;;
43345;SDS011;28937;51.160;4.146;2022-12-18T06:17:09;29.13;;;18.35;;
43345;SDS011;28937;51.160;4.146;2022-12-18T06:19:35;26.40;;;18.80;;
43345;SDS011;28937;51.160;4.146;2022-12-18T06:22:01;27.08;;;18.75;;
43345;SDS011;28937;51.160;4.146;2022-12-18T06:24:26;24.30;;;16.92;;
43345;SDS011;28937;51.160;4.146;2022-12-18T06:26:52;25.65;;;16.65;;
43345;SDS011;28937;51.160;4.146;2022-12-18T06:29:17;27.55;;;17.45;;
43345;SDS011;28937;51.160;4.146;2022-12-18T06:31:43;29.15;;;19.05;;
43345;SDS011;28937;51.160;4.146;2022-12-18T06:34:08;27.92;;;18.10;;
43345;SDS011;28937;51.160;4.146;2022-12-18T06:36:34;28.98;;;18.48;;
43345;SDS011;28937;51.160;4.146;2022-12-18T06:38:59;29.75;;;18.60;;
43345;SDS011;28937;51.160;4.146;2022-12-18T06:41:25;28.60;;;18.55;;
43345;SDS011;28937;51.160;4.146;2022-12-18T06:43:50;28.35;;;19.08;;
43345;SDS011;28937;51.160;4.146;2022-12-18T06:46:16;28.35;;;18.80;;
43345;SDS011;28937;51.160;4.146;2022-12-18T06:48:42;27.90;;;17.10;;
43345;SDS011;28937;51.160;4.146;2022-12-18T06:51:07;30.42;;;18.05;;
43345;SDS011;28937;51.160;4.146;2022-12-18T06:53:33;28.25;;;18.50;;
43345;SDS011;28937;51.160;4.146;2022-12-18T06:55:59;24.58;;;16.58;;
43345;SDS011;28937;51.160;4.146;2022-12-18T06:58:29;29.02;;;17.42;;
43345;SDS011;28937;51.160;4.146;2022-12-18T07:00:59;27.15;;;16.58;;
43345;SDS011;28937;51.160;4.146;2022-12-18T07:03:26;29.00;;;17.30;;
43345;SDS011;28937;51.160;4.146;2022-12-18T07:05:52;26.88;;;16.30;;
43345;SDS011;28937;51.160;4.146;2022-12-18T07:08:17;29.08;;;16.70;;
43345;SDS011;28937;51.160;4.146;2022-12-18T07:10:43;24.00;;;15.35;;
43345;SDS011;28937;51.160;4.146;2022-12-18T07:13:09;28.45;;;16.45;;
43345;SDS011;28937;51.160;4.146;2022-12-18T07:15:34;23.88;;;14.98;;
43345;SDS011;28937;51.160;4.146;2022-12-18T07:18:00;23.20;;;14.85;;
43345;SDS011;28937;51.160;4.146;2022-12-18T07:20:25;24.50;;;15.48;;
43345;SDS011;28937;51.160;4.146;2022-12-18T07:22:51;22.42;;;14.52;;
43345;SDS011;28937;51.160;4.146;2022-12-18T07:25:16;24.77;;;14.10;;
43345;SDS011;28937;51.160;4.146;2022-12-18T07:27:42;24.00;;;15.48;;
43345;SDS011;28937;51.160;4.146;2022-12-18T07:30:08;26.13;;;16.15;;
43345;SDS011;28937;51.160;4.146;2022-12-18T07:32:34;23.25;;;14.60;;
43345;SDS011;28937;51.160;4.146;2022-12-18T07:35:00;25.45;;;14.77;;
43345;SDS011;28937;51.160;4.146;2022-12-18T07:37:25;21.20;;;14.38;;
43345;SDS011;28937;51.160;4.146;2022-12-18T07:39:51;26.58;;;15.95;;
43345;SDS011;28937;51.160;4.146;2022-12-18T07:42:16;26.40;;;15.48;;
43345;SDS011;28937;51.160;4.146;2022-12-18T07:45:00;23.17;;;15.20;;
43345;SDS011;28937;51.160;4.146;2022-12-18T07:47:27;21.30;;;14.13;;
43345;SDS011;28937;51.160;4.146;2022-12-18T07:49:54;23.55;;;13.25;;
43345;SDS011;28937;51.160;4.146;2022-12-18T07:52:19;20.73;;;13.43;;
43345;SDS011;28937;51.160;4.146;2022-12-18T07:54:45;25.42;;;14.32;;
43345;SDS011;28937;51.160;4.146;2022-12-18T07:57:13;23.50;;;13.75;;
43345;SDS011;28937;51.160;4.146;2022-12-18T07:59:39;20.17;;;12.77;;
43345;SDS011;28937;51.160;4.146;2022-12-18T08:02:05;23.05;;;13.07;;
43345;SDS011;28937;51.160;4.146;2022-12-18T08:04:30;21.08;;;13.98;;
43345;SDS011;28937;51.160;4.146;2022-12-18T08:06:56;17.27;;;12.40;;
43345;SDS011;28937;51.160;4.146;2022-12-18T08:09:22;22.20;;;13.15;;
43345;SDS011;28937;51.160;4.146;2022-12-18T08:11:47;20.05;;;12.63;;
43345;SDS011;28937;51.160;4.146;2022-12-18T08:14:13;18.38;;;12.18;;
43345;SDS011;28937;51.160;4.146;2022-12-18T08:16:39;20.42;;;13.23;;
43345;SDS011;28937;51.160;4.146;2022-12-18T08:19:05;20.17;;;12.63;;
43345;SDS011;28937;51.160;4.146;2022-12-18T08:21:30;20.75;;;13.98;;
43345;SDS011;28937;51.160;4.146;2022-12-18T08:23:58;18.65;;;12.05;;
43345;SDS011;28937;51.160;4.146;2022-12-18T08:26:25;18.50;;;12.32;;
43345;SDS011;28937;51.160;4.146;2022-12-18T08:28:53;23.17;;;12.73;;
43345;SDS011;28937;51.160;4.146;2022-12-18T08:31:20;18.63;;;11.73;;
43345;SDS011;28937;51.160;4.146;2022-12-18T08:33:48;18.33;;;11.95;;
43345;SDS011;28937;51.160;4.146;2022-12-18T08:36:14;18.35;;;12.15;;
43345;SDS011;28937;51.160;4.146;2022-12-18T08:38:40;19.52;;;12.63;;
43345;SDS011;28937;51.160;4.146;2022-12-18T08:41:06;19.85;;;13.27;;
43345;SDS011;28937;51.160;4.146;2022-12-18T08:43:34;21.42;;;12.15;;
43345;SDS011;28937;51.160;4.146;2022-12-18T08:46:18;19.27;;;12.48;;
43345;SDS011;28937;51.160;4.146;2022-12-18T08:48:45;17.58;;;11.07;;
43345;SDS011;28937;51.160;4.146;2022-12-18T08:51:11;16.92;;;12.00;;
43345;SDS011;28937;51.160;4.146;2022-12-18T08:53:37;18.90;;;11.93;;
43345;SDS011;28937;51.160;4.146;2022-12-18T08:56:03;17.35;;;11.90;;
43345;SDS011;28937;51.160;4.146;2022-12-18T08:58:29;17.42;;;11.15;;
43345;SDS011;28937;51.160;4.146;2022-12-18T09:00:59;19.80;;;12.48;;
43345;SDS011;28937;51.160;4.146;2022-12-18T09:03:28;18.60;;;12.77;;
43345;SDS011;28937;51.160;4.146;2022-12-18T09:05:54;20.83;;;12.27;;
43345;SDS011;28937;51.160;4.146;2022-12-18T09:08:19;16.58;;;11.23;;
43345;SDS011;28937;51.160;4.146;2022-12-18T09:10:45;18.92;;;12.32;;
43345;SDS011;28937;51.160;4.146;2022-12-18T09:13:13;17.73;;;12.00;;
43345;SDS011;28937;51.160;4.146;2022-12-18T09:15:43;18.27;;;11.93;;
43345;SDS011;28937;51.160;4.146;2022-12-18T09:18:12;18.43;;;11.10;;
43345;SDS011;28937;51.160;4.146;2022-12-18T09:20:38;19.77;;;12.27;;
43345;SDS011;28937;51.160;4.146;2022-12-18T09:23:04;18.42;;;11.82;;
43345;SDS011;28937;51.160;4.146;2022-12-18T09:25:31;20.00;;;12.80;;
43345;SDS011;28937;51.160;4.146;2022-12-18T09:27:58;17.02;;;10.85;;
43345;SDS011;28937;51.160;4.146;2022-12-18T09:30:25;16.20;;;10.30;;
43345;SDS011;28937;51.160;4.146;2022-12-18T09:32:51;18.38;;;11.75;;
43345;SDS011;28937;51.160;4.146;2022-12-18T09:35:17;22.35;;;13.57;;
43345;SDS011;28937;51.160;4.146;2022-12-18T09:37:42;22.35;;;14.20;;
43345;SDS011;28937;51.160;4.146;2022-12-18T09:40:14;17.42;;;11.40;;
43345;SDS011;28937;51.160;4.146;2022-12-18T09:42:44;15.95;;;11.15;;
43345;SDS011;28937;51.160;4.146;2022-12-18T09:45:16;20.25;;;11.75;;
43345;SDS011;28937;51.160;4.146;2022-12-18T09:47:43;16.20;;;10.82;;
43345;SDS011;28937;51.160;4.146;2022-12-18T09:50:27;15.60;;;10.82;;
43345;SDS011;28937;51.160;4.146;2022-12-18T09:52:58;20.30;;;11.95;;
43345;SDS011;28937;51.160;4.146;2022-12-18T09:55:33;16.98;;;12.40;;
43345;SDS011;28937;51.160;4.146;2022-12-18T09:58:05;17.48;;;12.02;;
43345;SDS011;28937;51.160;4.146;2022-12-18T10:00:52;16.38;;;11.35;;
43345;SDS011;28937;51.160;4.146;2022-12-18T10:03:18;18.23;;;12.20;;
43345;SDS011;28937;51.160;4.146;2022-12-18T10:05:51;18.38;;;12.57;;
43345;SDS011;28937;51.160;4.146;2022-12-18T10:08:34;16.15;;;11.50;;
43345;SDS011;28937;51.160;4.146;2022-12-18T10:14:13;17.73;;;11.38;;
43345;SDS011;28937;51.160;4.146;2022-12-18T10:19:55;15.40;;;11.32;;
43345;SDS011;28937;51.160;4.146;2022-12-18T10:22:31;17.55;;;12.18;;
43345;SDS011;28937;51.160;4.146;2022-12-18T10:27:52;16.02;;;12.00;;
43345;SDS011;28937;51.160;4.146;2022-12-18T10:30:21;19.05;;;11.32;;
43345;SDS011;28937;51.160;4.146;2022-12-18T10:32:48;19.83;;;11.60;;
43345;SDS011;28937;51.160;4.146;2022-12-18T10:35:25;16.10;;;11.65;;
43345;SDS011;28937;51.160;4.146;2022-12-18T10:43:25;15.18;;;11.23;;
43345;SDS011;28937;51.160;4.146;2022-12-18T10:46:04;16.70;;;11.15;;
43345;SDS011;28937;51.160;4.146;2022-12-18T10:48:34;16.80;;;11.98;;
43345;SDS011;28937;51.160;4.146;2022-12-18T10:51:04;16.13;;;12.07;;
43345;SDS011;28937;51.160;4.146;2022-12-18T10:53:31;17.27;;;12.27;;
43345;SDS011;28937;51.160;4.146;2022-12-18T10:56:00;18.08;;;11.57;;
43345;SDS011;28937;51.160;4.146;2022-12-18T10:58:31;16.98;;;11.95;;
43345;SDS011;28937;51.160;4.146;2022-12-18T11:03:41;19.35;;;12.57;;
43345;SDS011;28937;51.160;4.146;2022-12-18T11:06:10;17.08;;;11.95;;
43345;SDS011;28937;51.160;4.146;2022-12-18T11:08:37;19.23;;;12.25;;
43345;SDS011;28937;51.160;4.146;2022-12-18T11:11:04;18.88;;;12.57;;
43345;SDS011;28937;51.160;4.146;2022-12-18T11:16:42;17.73;;;11.45;;
43345;SDS011;28937;51.160;4.146;2022-12-18T11:19:20;14.77;;;11.60;;
43345;SDS011;28937;51.160;4.146;2022-12-18T11:21:47;17.70;;;12.25;;
43345;SDS011;28937;51.160;4.146;2022-12-18T11:24:19;17.25;;;11.73;;
43345;SDS011;28937;51.160;4.146;2022-12-18T11:26:59;19.35;;;12.88;;
43345;SDS011;28937;51.160;4.146;2022-12-18T11:29:34;19.05;;;12.38;;
43345;SDS011;28937;51.160;4.146;2022-12-18T11:34:39;17.42;;;12.38;;
43345;SDS011;28937;51.160;4.146;2022-12-18T11:37:09;27.80;;;11.80;;
43345;SDS011;28937;51.160;4.146;2022-12-18T11:44:51;17.67;;;12.40;;
43345;SDS011;28937;51.160;4.146;2022-12-18T11:47:41;16.65;;;12.15;;
43345;SDS011;28937;51.160;4.146;2022-12-18T11:50:16;19.25;;;13.35;;
43345;SDS011;28937;51.160;4.146;2022-12-18T11:53:09;17.38;;;13.10;;
43345;SDS011;28937;51.160;4.146;2022-12-18T11:55:39;19.15;;;13.73;;
43345;SDS011;28937;51.160;4.146;2022-12-18T11:58:19;19.17;;;14.98;;
43345;SDS011;28937;51.160;4.146;2022-12-18T12:01:17;17.83;;;13.05;;
43345;SDS011;28937;51.160;4.146;2022-12-18T12:04:22;19.92;;;13.85;;
43345;SDS011;28937;51.160;4.146;2022-12-18T12:07:32;18.20;;;12.35;;
43345;SDS011;28937;51.160;4.146;2022-12-18T12:13:23;19.55;;;12.73;;
43345;SDS011;28937;51.160;4.146;2022-12-18T12:21:10;21.45;;;13.85;;
43345;SDS011;28937;51.160;4.146;2022-12-18T12:26:22;16.48;;;12.52;;
43345;SDS011;28937;51.160;4.146;2022-12-18T12:34:24;17.33;;;12.63;;
43345;SDS011;28937;51.160;4.146;2022-12-18T12:39:58;18.70;;;12.45;;
43345;SDS011;28937;51.160;4.146;2022-12-18T12:42:31;19.10;;;13.85;;
43345;SDS011;28937;51.160;4.146;2022-12-18T12:45:23;18.98;;;13.15;;
43345;SDS011;28937;51.160;4.146;2022-12-18T12:47:56;20.30;;;14.57;;
43345;SDS011;28937;51.160;4.146;2022-12-18T12:52:53;20.95;;;13.00;;
43345;SDS011;28937;51.160;4.146;2022-12-18T12:55:22;19.05;;;12.82;;
43345;SDS011;28937;51.160;4.146;2022-12-18T13:00:30;19.98;;;13.27;;
43345;SDS011;28937;51.160;4.146;2022-12-18T13:05:56;20.35;;;13.88;;
43345;SDS011;28937;51.160;4.146;2022-12-18T13:08:27;18.05;;;13.77;;
43345;SDS011;28937;51.160;4.146;2022-12-18T13:10:54;19.38;;;14.23;;
43345;SDS011;28937;51.160;4.146;2022-12-18T13:13:51;21.27;;;14.55;;
43345;SDS011;28937;51.160;4.146;2022-12-18T13:16:19;19.08;;;13.95;;
43345;SDS011;28937;51.160;4.146;2022-12-18T13:18:56;20.52;;;15.00;;
43345;SDS011;28937;51.160;4.146;2022-12-18T13:21:27;18.38;;;14.07;;
43345;SDS011;28937;51.160;4.146;2022-12-18T13:24:14;18.75;;;13.55;;
43345;SDS011;28937;51.160;4.146;2022-12-18T13:26:47;19.83;;;14.13;;
43345;SDS011;28937;51.160;4.146;2022-12-18T13:29:14;21.33;;;14.43;;
43345;SDS011;28937;51.160;4.146;2022-12-18T13:34:44;20.35;;;14.80;;
43345;SDS011;28937;51.160;4.146;2022-12-18T13:39:56;22.65;;;16.15;;
43345;SDS011;28937;51.160;4.146;2022-12-18T13:45:38;24.63;;;18.25;;
43345;SDS011;28937;51.160;4.146;2022-12-18T13:48:14;21.35;;;16.00;;
43345;SDS011;28937;51.160;4.146;2022-12-18T13:50:48;23.30;;;15.43;;
43345;SDS011;28937;51.160;4.146;2022-12-18T13:53:26;21.65;;;15.82;;
43345;SDS011;28937;51.160;4.146;2022-12-18T13:55:54;19.88;;;15.93;;
43345;SDS011;28937;51.160;4.146;2022-12-18T13:58:20;21.40;;;14.93;;
43345;SDS011;28937;51.160;4.146;2022-12-18T14:00:46;21.83;;;15.02;;
43345;SDS011;28937;51.160;4.146;2022-12-18T14:03:45;21.48;;;15.32;;
43345;SDS011;28937;51.160;4.146;2022-12-18T14:06:06;24.10;;;15.48;;
43345;SDS011;28937;51.160;4.146;2022-12-18T14:08:35;22.80;;;15.70;;
43345;SDS011;28937;51.160;4.146;2022-12-18T14:11:06;20.55;;;15.30;;
43345;SDS011;28937;51.160;4.146;2022-12-18T14:13:42;24.10;;;15.55;;
43345;SDS011;28937;51.160;4.146;2022-12-18T14:16:12;21.35;;;15.25;;
43345;SDS011;28937;51.160;4.146;2022-12-18T14:18:45;22.80;;;16.25;;
43345;SDS011;28937;51.160;4.146;2022-12-18T14:21:18;25.13;;;15.07;;
43345;SDS011;28937;51.160;4.146;2022-12-18T14:23:48;23.45;;;16.55;;
43345;SDS011;28937;51.160;4.146;2022-12-18T14:26:28;21.75;;;16.13;;
43345;SDS011;28937;51.160;4.146;2022-12-18T14:28:56;20.80;;;15.13;;
43345;SDS011;28937;51.160;4.146;2022-12-18T14:31:23;23.38;;;16.75;;
43345;SDS011;28937;51.160;4.146;2022-12-18T14:33:51;21.92;;;15.77;;
43345;SDS011;28937;51.160;4.146;2022-12-18T14:36:18;25.60;;;17.40;;
43345;SDS011;28937;51.160;4.146;2022-12-18T14:38:50;20.30;;;16.27;;
43345;SDS011;28937;51.160;4.146;2022-12-18T14:41:19;23.45;;;17.40;;
43345;SDS011;28937;51.160;4.146;2022-12-18T14:43:47;25.45;;;18.08;;
43345;SDS011;28937;51.160;4.146;2022-12-18T14:46:28;22.10;;;16.73;;
43345;SDS011;28937;51.160;4.146;2022-12-18T14:49:04;24.15;;;17.25;;
43345;SDS011;28937;51.160;4.146;2022-12-18T14:51:47;29.45;;;19.67;;
43345;SDS011;28937;51.160;4.146;2022-12-18T14:54:18;27.48;;;18.98;;
43345;SDS011;28937;51.160;4.146;2022-12-18T14:56:51;26.30;;;18.67;;
43345;SDS011;28937;51.160;4.146;2022-12-18T14:59:37;25.73;;;18.00;;
43345;SDS011;28937;51.160;4.146;2022-12-18T15:02:20;24.67;;;18.23;;
43345;SDS011;28937;51.160;4.146;2022-12-18T15:04:48;26.02;;;19.58;;
43345;SDS011;28937;51.160;4.146;2022-12-18T15:07:38;26.90;;;20.17;;
43345;SDS011;28937;51.160;4.146;2022-12-18T15:12:42;29.40;;;22.00;;
43345;SDS011;28937;51.160;4.146;2022-12-18T15:20:48;33.53;;;21.63;;
43345;SDS011;28937;51.160;4.146;2022-12-18T15:23:21;26.38;;;18.65;;
43345;SDS011;28937;51.160;4.146;2022-12-18T15:26:01;26.40;;;20.55;;
43345;SDS011;28937;51.160;4.146;2022-12-18T15:33:40;27.40;;;19.27;;
43345;SDS011;28937;51.160;4.146;2022-12-18T15:36:10;28.65;;;20.88;;
43345;SDS011;28937;51.160;4.146;2022-12-18T15:38:39;27.02;;;19.98;;
43345;SDS011;28937;51.160;4.146;2022-12-18T15:41:05;25.98;;;19.00;;
43345;SDS011;28937;51.160;4.146;2022-12-18T15:43:31;28.85;;;21.15;;
43345;SDS011;28937;51.160;4.146;2022-12-18T15:46:03;27.63;;;19.42;;
43345;SDS011;28937;51.160;4.146;2022-12-18T15:48:40;30.27;;;21.40;;
43345;SDS011;28937;51.160;4.146;2022-12-18T15:51:13;30.73;;;22.08;;
43345;SDS011;28937;51.160;4.146;2022-12-18T15:53:42;28.98;;;21.02;;
43345;SDS011;28937;51.160;4.146;2022-12-18T15:56:11;31.33;;;21.80;;
43345;SDS011;28937;51.160;4.146;2022-12-18T15:58:56;31.77;;;22.35;;
43345;SDS011;28937;51.160;4.146;2022-12-18T16:01:22;30.98;;;22.08;;
43345;SDS011;28937;51.160;4.146;2022-12-18T16:03:51;31.40;;;21.33;;
43345;SDS011;28937;51.160;4.146;2022-12-18T16:06:18;31.13;;;22.17;;
43345;SDS011;28937;51.160;4.146;2022-12-18T16:08:44;31.33;;;21.65;;
43345;SDS011;28937;51.160;4.146;2022-12-18T16:11:23;29.13;;;20.15;;
43345;SDS011;28937;51.160;4.146;2022-12-18T16:14:22;35.80;;;23.48;;
43345;SDS011;28937;51.160;4.146;2022-12-18T16:16:56;29.58;;;20.67;;
43345;SDS011;28937;51.160;4.146;2022-12-18T16:19:26;33.92;;;21.75;;
43345;SDS011;28937;51.160;4.146;2022-12-18T16:21:54;29.83;;;20.23;;